sensor_id;sensor_type;location;lat;lon;timestamp;P1;durP1;ratioP1;P2;durP2;ratioP2
5559;SDS011;2803;47.916;8.074;2022-08-30T00:01:13;12.20;;;7.50;;
5559;SDS011;2803;47.916;8.074;2022-08-30T00:03:45;11.10;;;7.90;;
5559;SDS011;2803;47.916;8.074;2022-08-30T00:06:12;11.70;;;7.23;;
5559;SDS011;2803;47.916;8.074;2022-08-30T00:08:40;15.40;;;7.03;;
5559;SDS011;2803;47.916;8.074;2022-08-30T00:11:08;8.40;;;7.10;;
5559;SDS011;2803;47.916;8.074;2022-08-30T00:13:38;13.97;;;7.57;;
5559;SDS011;2803;47.916;8.074;2022-08-30T00:16:06;8.67;;;6.60;;
5559;SDS011;2803;47.916;8.074;2022-08-30T00:18:34;7.13;;;6.43;;
5559;SDS011;2803;47.916;8.074;2022-08-30T00:21:01;12.50;;;6.90;;
5559;SDS011;2803;47.916;8.074;2022-08-30T00:23:29;8.17;;;6.93;;
5559;SDS011;2803;47.916;8.074;2022-08-30T00:25:56;15.40;;;8.10;;
5559;SDS011;2803;47.916;8.074;2022-08-30T00:28:22;11.43;;;6.50;;
5559;SDS011;2803;47.916;8.074;2022-08-30T00:30:50;11.73;;;6.53;;
5559;SDS011;2803;47.916;8.074;2022-08-30T00:33:17;8.43;;;6.40;;
5559;SDS011;2803;47.916;8.074;2022-08-30T00:35:44;8.47;;;6.77;;
5559;SDS011;2803;47.916;8.074;2022-08-30T00:38:11;9.73;;;6.73;;
5559;SDS011;2803;47.916;8.074;2022-08-30T00:40:39;12.10;;;7.83;;
5559;SDS011;2803;47.916;8.074;2022-08-30T00:43:09;11.37;;;7.17;;
5559;SDS011;2803;47.916;8.074;2022-08-30T00:45:47;12.00;;;6.77;;
5559;SDS011;2803;47.916;8.074;2022-08-30T00:48:15;11.73;;;7.10;;
5559;SDS011;2803;47.916;8.074;2022-08-30T00:50:43;8.97;;;6.63;;
5559;SDS011;2803;47.916;8.074;2022-08-30T00:53:13;8.50;;;6.10;;
5559;SDS011;2803;47.916;8.074;2022-08-30T00:55:44;8.30;;;6.70;;
5559;SDS011;2803;47.916;8.074;2022-08-30T00:58:13;12.20;;;6.97;;
5559;SDS011;2803;47.916;8.074;2022-08-30T01:00:45;8.50;;;7.10;;
5559;SDS011;2803;47.916;8.074;2022-08-30T01:03:13;9.77;;;6.17;;
5559;SDS011;2803;47.916;8.074;2022-08-30T01:05:41;8.43;;;6.70;;
5559;SDS011;2803;47.916;8.074;2022-08-30T01:08:08;8.70;;;6.70;;
5559;SDS011;2803;47.916;8.074;2022-08-30T01:10:35;13.13;;;8.17;;
5559;SDS011;2803;47.916;8.074;2022-08-30T01:13:02;14.67;;;9.50;;
5559;SDS011;2803;47.916;8.074;2022-08-30T01:15:29;13.33;;;9.10;;
5559;SDS011;2803;47.916;8.074;2022-08-30T01:17:56;13.77;;;8.07;;
5559;SDS011;2803;47.916;8.074;2022-08-30T01:20:27;13.47;;;9.27;;
5559;SDS011;2803;47.916;8.074;2022-08-30T01:23:07;10.73;;;9.30;;
5559;SDS011;2803;47.916;8.074;2022-08-30T01:25:37;15.03;;;9.50;;
5559;SDS011;2803;47.916;8.074;2022-08-30T01:28:08;14.57;;;8.50;;
5559;SDS011;2803;47.916;8.074;2022-08-30T01:30:38;12.20;;;8.03;;
5559;SDS011;2803;47.916;8.074;2022-08-30T01:33:07;11.50;;;6.83;;
5559;SDS011;2803;47.916;8.074;2022-08-30T01:35:35;11.47;;;7.57;;
5559;SDS011;2803;47.916;8.074;2022-08-30T01:38:09;8.87;;;7.20;;
5559;SDS011;2803;47.916;8.074;2022-08-30T01:40:37;12.37;;;7.47;;
5559;SDS011;2803;47.916;8.074;2022-08-30T01:43:03;17.47;;;8.33;;
5559;SDS011;2803;47.916;8.074;2022-08-30T01:45:31;13.80;;;8.70;;
5559;SDS011;2803;47.916;8.074;2022-08-30T01:47:58;11.40;;;8.23;;
5559;SDS011;2803;47.916;8.074;2022-08-30T01:50:24;11.47;;;8.27;;
5559;SDS011;2803;47.916;8.074;2022-08-30T01:52:51;11.00;;;7.80;;
5559;SDS011;2803;47.916;8.074;2022-08-30T01:55:19;12.77;;;7.90;;
5559;SDS011;2803;47.916;8.074;2022-08-30T01:57:45;13.23;;;6.63;;
5559;SDS011;2803;47.916;8.074;2022-08-30T02:00:14;9.47;;;7.10;;
5559;SDS011;2803;47.916;8.074;2022-08-30T02:02:41;8.50;;;7.13;;
5559;SDS011;2803;47.916;8.074;2022-08-30T02:05:08;10.13;;;8.00;;
5559;SDS011;2803;47.916;8.074;2022-08-30T02:07:34;13.43;;;7.70;;
5559;SDS011;2803;47.916;8.074;2022-08-30T02:10:01;9.73;;;7.13;;
5559;SDS011;2803;47.916;8.074;2022-08-30T02:12:29;11.10;;;8.00;;
5559;SDS011;2803;47.916;8.074;2022-08-30T02:14:56;9.87;;;6.43;;
5559;SDS011;2803;47.916;8.074;2022-08-30T02:17:23;7.83;;;5.93;;
5559;SDS011;2803;47.916;8.074;2022-08-30T02:19:49;9.63;;;7.70;;
5559;SDS011;2803;47.916;8.074;2022-08-30T02:22:16;8.87;;;7.10;;
5559;SDS011;2803;47.916;8.074;2022-08-30T02:24:44;9.43;;;6.63;;
5559;SDS011;2803;47.916;8.074;2022-08-30T02:27:11;11.63;;;6.03;;
5559;SDS011;2803;47.916;8.074;2022-08-30T02:29:39;8.23;;;6.57;;
5559;SDS011;2803;47.916;8.074;2022-08-30T02:32:06;9.03;;;6.93;;
5559;SDS011;2803;47.916;8.074;2022-08-30T02:34:33;9.73;;;7.53;;
5559;SDS011;2803;47.916;8.074;2022-08-30T02:36:59;8.67;;;6.30;;
5559;SDS011;2803;47.916;8.074;2022-08-30T02:39:26;9.73;;;7.20;;
5559;SDS011;2803;47.916;8.074;2022-08-30T02:41:53;9.73;;;7.33;;
5559;SDS011;2803;47.916;8.074;2022-08-30T02:44:20;10.03;;;6.87;;
5559;SDS011;2803;47.916;8.074;2022-08-30T02:46:48;8.80;;;7.00;;
5559;SDS011;2803;47.916;8.074;2022-08-30T02:49:15;7.60;;;6.53;;
5559;SDS011;2803;47.916;8.074;2022-08-30T02:51:41;11.30;;;7.63;;
5559;SDS011;2803;47.916;8.074;2022-08-30T02:54:08;10.63;;;8.00;;
5559;SDS011;2803;47.916;8.074;2022-08-30T02:56:39;12.70;;;7.70;;
5559;SDS011;2803;47.916;8.074;2022-08-30T02:59:06;11.47;;;7.30;;
5559;SDS011;2803;47.916;8.074;2022-08-30T03:01:33;9.87;;;7.73;;
5559;SDS011;2803;47.916;8.074;2022-08-30T03:04:04;10.87;;;7.83;;
5559;SDS011;2803;47.916;8.074;2022-08-30T03:06:31;10.13;;;7.73;;
5559;SDS011;2803;47.916;8.074;2022-08-30T03:08:57;18.83;;;7.00;;
5559;SDS011;2803;47.916;8.074;2022-08-30T03:11:24;8.47;;;6.23;;
5559;SDS011;2803;47.916;8.074;2022-08-30T03:13:51;8.20;;;6.67;;
5559;SDS011;2803;47.916;8.074;2022-08-30T03:16:17;9.60;;;6.87;;
5559;SDS011;2803;47.916;8.074;2022-08-30T03:18:45;8.17;;;6.70;;
5559;SDS011;2803;47.916;8.074;2022-08-30T03:21:14;10.87;;;7.30;;
5559;SDS011;2803;47.916;8.074;2022-08-30T03:23:42;19.07;;;7.77;;
5559;SDS011;2803;47.916;8.074;2022-08-30T03:26:10;25.63;;;7.27;;
5559;SDS011;2803;47.916;8.074;2022-08-30T03:28:38;10.23;;;7.87;;
5559;SDS011;2803;47.916;8.074;2022-08-30T03:31:06;12.50;;;7.40;;
5559;SDS011;2803;47.916;8.074;2022-08-30T03:33:33;10.30;;;8.13;;
5559;SDS011;2803;47.916;8.074;2022-08-30T03:36:00;13.63;;;9.23;;
5559;SDS011;2803;47.916;8.074;2022-08-30T03:38:28;11.90;;;8.80;;
5559;SDS011;2803;47.916;8.074;2022-08-30T03:40:55;15.83;;;9.50;;
5559;SDS011;2803;47.916;8.074;2022-08-30T03:43:21;13.20;;;8.77;;
5559;SDS011;2803;47.916;8.074;2022-08-30T03:45:48;10.47;;;7.90;;
5559;SDS011;2803;47.916;8.074;2022-08-30T03:48:14;9.20;;;6.80;;
5559;SDS011;2803;47.916;8.074;2022-08-30T03:50:41;8.87;;;7.40;;
5559;SDS011;2803;47.916;8.074;2022-08-30T03:53:09;10.87;;;8.00;;
5559;SDS011;2803;47.916;8.074;2022-08-30T03:55:37;9.43;;;6.40;;
5559;SDS011;2803;47.916;8.074;2022-08-30T03:58:03;9.67;;;7.67;;
5559;SDS011;2803;47.916;8.074;2022-08-30T04:00:30;11.13;;;6.83;;
5559;SDS011;2803;47.916;8.074;2022-08-30T04:02:57;10.30;;;7.63;;
5559;SDS011;2803;47.916;8.074;2022-08-30T04:05:23;11.83;;;7.27;;
5559;SDS011;2803;47.916;8.074;2022-08-30T04:07:51;11.90;;;8.70;;
5559;SDS011;2803;47.916;8.074;2022-08-30T04:10:18;13.30;;;10.17;;
5559;SDS011;2803;47.916;8.074;2022-08-30T04:12:46;13.10;;;8.73;;
5559;SDS011;2803;47.916;8.074;2022-08-30T04:15:14;12.93;;;8.50;;
5559;SDS011;2803;47.916;8.074;2022-08-30T04:17:41;13.47;;;8.80;;
5559;SDS011;2803;47.916;8.074;2022-08-30T04:20:08;12.30;;;8.40;;
5559;SDS011;2803;47.916;8.074;2022-08-30T04:22:35;10.13;;;7.83;;
5559;SDS011;2803;47.916;8.074;2022-08-30T04:25:02;12.63;;;8.93;;
5559;SDS011;2803;47.916;8.074;2022-08-30T04:27:29;11.33;;;8.20;;
5559;SDS011;2803;47.916;8.074;2022-08-30T04:29:58;14.27;;;8.60;;
5559;SDS011;2803;47.916;8.074;2022-08-30T04:32:25;11.80;;;6.70;;
5559;SDS011;2803;47.916;8.074;2022-08-30T04:34:54;9.80;;;7.20;;
5559;SDS011;2803;47.916;8.074;2022-08-30T04:37:21;10.53;;;6.90;;
5559;SDS011;2803;47.916;8.074;2022-08-30T04:39:48;11.30;;;6.40;;
5559;SDS011;2803;47.916;8.074;2022-08-30T04:42:14;8.43;;;6.90;;
5559;SDS011;2803;47.916;8.074;2022-08-30T04:44:42;19.30;;;9.43;;
5559;SDS011;2803;47.916;8.074;2022-08-30T04:47:10;14.40;;;8.50;;
5559;SDS011;2803;47.916;8.074;2022-08-30T04:49:36;13.70;;;9.20;;
5559;SDS011;2803;47.916;8.074;2022-08-30T04:52:03;15.50;;;10.77;;
5559;SDS011;2803;47.916;8.074;2022-08-30T04:54:32;13.70;;;9.80;;
5559;SDS011;2803;47.916;8.074;2022-08-30T04:56:59;13.20;;;8.80;;
5559;SDS011;2803;47.916;8.074;2022-08-30T04:59:26;14.57;;;9.67;;
5559;SDS011;2803;47.916;8.074;2022-08-30T05:01:53;25.10;;;8.47;;
5559;SDS011;2803;47.916;8.074;2022-08-30T05:04:21;12.40;;;7.50;;
5559;SDS011;2803;47.916;8.074;2022-08-30T05:06:48;11.03;;;7.10;;
5559;SDS011;2803;47.916;8.074;2022-08-30T05:09:14;15.20;;;7.13;;
5559;SDS011;2803;47.916;8.074;2022-08-30T05:11:41;12.43;;;8.17;;
5559;SDS011;2803;47.916;8.074;2022-08-30T05:14:08;10.43;;;8.17;;
5559;SDS011;2803;47.916;8.074;2022-08-30T05:16:35;9.80;;;8.00;;
5559;SDS011;2803;47.916;8.074;2022-08-30T05:19:02;8.67;;;7.20;;
5559;SDS011;2803;47.916;8.074;2022-08-30T05:21:30;11.70;;;8.07;;
5559;SDS011;2803;47.916;8.074;2022-08-30T05:23:57;11.00;;;7.73;;
5559;SDS011;2803;47.916;8.074;2022-08-30T05:26:27;10.40;;;7.40;;
5559;SDS011;2803;47.916;8.074;2022-08-30T05:28:55;8.90;;;7.13;;
5559;SDS011;2803;47.916;8.074;2022-08-30T05:31:22;9.43;;;7.33;;
5559;SDS011;2803;47.916;8.074;2022-08-30T05:33:52;8.90;;;7.23;;
5559;SDS011;2803;47.916;8.074;2022-08-30T05:36:20;8.20;;;6.87;;
5559;SDS011;2803;47.916;8.074;2022-08-30T05:38:49;9.17;;;5.90;;
5559;SDS011;2803;47.916;8.074;2022-08-30T05:41:17;14.50;;;8.70;;
5559;SDS011;2803;47.916;8.074;2022-08-30T05:43:44;12.53;;;7.17;;
5559;SDS011;2803;47.916;8.074;2022-08-30T05:46:11;16.80;;;8.70;;
5559;SDS011;2803;47.916;8.074;2022-08-30T05:48:43;13.37;;;8.83;;
5559;SDS011;2803;47.916;8.074;2022-08-30T05:51:11;11.13;;;8.27;;
5559;SDS011;2803;47.916;8.074;2022-08-30T05:53:40;12.37;;;9.17;;
5559;SDS011;2803;47.916;8.074;2022-08-30T05:56:09;11.70;;;8.87;;
5559;SDS011;2803;47.916;8.074;2022-08-30T05:58:37;10.70;;;8.20;;
5559;SDS011;2803;47.916;8.074;2022-08-30T06:01:04;13.50;;;9.33;;
5559;SDS011;2803;47.916;8.074;2022-08-30T06:03:32;11.10;;;8.40;;
5559;SDS011;2803;47.916;8.074;2022-08-30T06:05:59;12.93;;;9.00;;
5559;SDS011;2803;47.916;8.074;2022-08-30T06:08:26;10.73;;;9.17;;
5559;SDS011;2803;47.916;8.074;2022-08-30T06:10:53;11.87;;;9.03;;
5559;SDS011;2803;47.916;8.074;2022-08-30T06:13:21;14.00;;;9.20;;
5559;SDS011;2803;47.916;8.074;2022-08-30T06:15:47;11.87;;;8.73;;
5559;SDS011;2803;47.916;8.074;2022-08-30T06:18:16;15.63;;;9.27;;
5559;SDS011;2803;47.916;8.074;2022-08-30T06:20:44;11.70;;;9.33;;
5559;SDS011;2803;47.916;8.074;2022-08-30T06:23:12;11.00;;;9.17;;
5559;SDS011;2803;47.916;8.074;2022-08-30T06:25:41;10.97;;;8.37;;
5559;SDS011;2803;47.916;8.074;2022-08-30T06:28:08;10.80;;;8.23;;
5559;SDS011;2803;47.916;8.074;2022-08-30T06:30:38;9.67;;;7.90;;
5559;SDS011;2803;47.916;8.074;2022-08-30T06:33:06;13.00;;;8.10;;
5559;SDS011;2803;47.916;8.074;2022-08-30T06:35:32;9.47;;;7.80;;
5559;SDS011;2803;47.916;8.074;2022-08-30T06:37:59;17.37;;;9.03;;
5559;SDS011;2803;47.916;8.074;2022-08-30T06:40:26;9.27;;;6.93;;
5559;SDS011;2803;47.916;8.074;2022-08-30T06:42:52;11.60;;;8.37;;
5559;SDS011;2803;47.916;8.074;2022-08-30T06:45:19;12.70;;;9.20;;
5559;SDS011;2803;47.916;8.074;2022-08-30T06:47:47;14.33;;;8.97;;
5559;SDS011;2803;47.916;8.074;2022-08-30T06:50:14;10.10;;;8.13;;
5559;SDS011;2803;47.916;8.074;2022-08-30T06:52:42;9.10;;;7.80;;
5559;SDS011;2803;47.916;8.074;2022-08-30T06:55:10;12.20;;;8.10;;
5559;SDS011;2803;47.916;8.074;2022-08-30T06:57:38;10.10;;;7.63;;
5559;SDS011;2803;47.916;8.074;2022-08-30T07:00:06;10.87;;;7.57;;
5559;SDS011;2803;47.916;8.074;2022-08-30T07:02:36;11.00;;;7.67;;
5559;SDS011;2803;47.916;8.074;2022-08-30T07:05:04;9.77;;;7.47;;
5559;SDS011;2803;47.916;8.074;2022-08-30T07:07:32;10.70;;;7.20;;
5559;SDS011;2803;47.916;8.074;2022-08-30T07:10:00;9.75;;;7.60;;
5559;SDS011;2803;47.916;8.074;2022-08-30T07:12:27;11.13;;;7.80;;
5559;SDS011;2803;47.916;8.074;2022-08-30T07:14:54;11.30;;;7.13;;
5559;SDS011;2803;47.916;8.074;2022-08-30T07:17:20;16.40;;;7.63;;
5559;SDS011;2803;47.916;8.074;2022-08-30T07:20:01;14.67;;;7.47;;
5559;SDS011;2803;47.916;8.074;2022-08-30T07:22:30;12.70;;;6.60;;
5559;SDS011;2803;47.916;8.074;2022-08-30T07:24:58;14.10;;;7.33;;
5559;SDS011;2803;47.916;8.074;2022-08-30T07:27:24;8.97;;;7.47;;
5559;SDS011;2803;47.916;8.074;2022-08-30T07:29:51;12.03;;;7.13;;
5559;SDS011;2803;47.916;8.074;2022-08-30T07:32:17;10.53;;;6.93;;
5559;SDS011;2803;47.916;8.074;2022-08-30T07:34:44;9.83;;;6.73;;
5559;SDS011;2803;47.916;8.074;2022-08-30T07:37:11;8.50;;;6.30;;
5559;SDS011;2803;47.916;8.074;2022-08-30T07:39:38;9.30;;;6.63;;
5559;SDS011;2803;47.916;8.074;2022-08-30T07:42:05;15.13;;;6.37;;
5559;SDS011;2803;47.916;8.074;2022-08-30T07:44:32;10.47;;;5.93;;
5559;SDS011;2803;47.916;8.074;2022-08-30T07:46:58;9.63;;;6.17;;
5559;SDS011;2803;47.916;8.074;2022-08-30T07:49:25;7.77;;;5.73;;
5559;SDS011;2803;47.916;8.074;2022-08-30T07:51:51;13.27;;;6.87;;
5559;SDS011;2803;47.916;8.074;2022-08-30T07:54:18;7.80;;;6.10;;
5559;SDS011;2803;47.916;8.074;2022-08-30T07:56:46;7.80;;;5.73;;
5559;SDS011;2803;47.916;8.074;2022-08-30T07:59:13;9.13;;;5.40;;
5559;SDS011;2803;47.916;8.074;2022-08-30T08:01:40;7.87;;;5.27;;
5559;SDS011;2803;47.916;8.074;2022-08-30T08:04:06;7.40;;;5.40;;
5559;SDS011;2803;47.916;8.074;2022-08-30T08:06:36;8.00;;;5.20;;
5559;SDS011;2803;47.916;8.074;2022-08-30T08:09:04;6.77;;;5.57;;
5559;SDS011;2803;47.916;8.074;2022-08-30T08:11:32;7.73;;;5.30;;
5559;SDS011;2803;47.916;8.074;2022-08-30T08:14:01;7.67;;;4.90;;
5559;SDS011;2803;47.916;8.074;2022-08-30T08:16:30;11.17;;;5.60;;
5559;SDS011;2803;47.916;8.074;2022-08-30T08:18:59;9.47;;;5.77;;
5559;SDS011;2803;47.916;8.074;2022-08-30T08:21:26;5.57;;;4.77;;
5559;SDS011;2803;47.916;8.074;2022-08-30T08:23:53;6.03;;;4.27;;
5559;SDS011;2803;47.916;8.074;2022-08-30T08:26:20;6.77;;;4.37;;
5559;SDS011;2803;47.916;8.074;2022-08-30T08:28:47;4.80;;;4.10;;
5559;SDS011;2803;47.916;8.074;2022-08-30T08:31:16;6.33;;;4.50;;
5559;SDS011;2803;47.916;8.074;2022-08-30T08:33:44;7.03;;;4.47;;
5559;SDS011;2803;47.916;8.074;2022-08-30T08:36:11;6.30;;;3.97;;
5559;SDS011;2803;47.916;8.074;2022-08-30T08:38:38;7.53;;;4.50;;
5559;SDS011;2803;47.916;8.074;2022-08-30T08:41:05;12.40;;;4.50;;
5559;SDS011;2803;47.916;8.074;2022-08-30T08:43:37;6.53;;;4.40;;
5559;SDS011;2803;47.916;8.074;2022-08-30T08:46:06;5.77;;;4.53;;
5559;SDS011;2803;47.916;8.074;2022-08-30T08:48:41;5.33;;;4.40;;
5559;SDS011;2803;47.916;8.074;2022-08-30T08:51:11;4.90;;;3.90;;
5559;SDS011;2803;47.916;8.074;2022-08-30T08:53:54;5.00;;;4.40;;
5559;SDS011;2803;47.916;8.074;2022-08-30T08:56:24;4.57;;;3.93;;
5559;SDS011;2803;47.916;8.074;2022-08-30T08:58:52;4.50;;;4.00;;
5559;SDS011;2803;47.916;8.074;2022-08-30T09:01:21;5.77;;;3.90;;
5559;SDS011;2803;47.916;8.074;2022-08-30T09:03:53;4.90;;;3.50;;
5559;SDS011;2803;47.916;8.074;2022-08-30T09:06:22;6.73;;;3.57;;
5559;SDS011;2803;47.916;8.074;2022-08-30T09:08:56;3.83;;;3.33;;
5559;SDS011;2803;47.916;8.074;2022-08-30T09:11:24;4.63;;;3.63;;
5559;SDS011;2803;47.916;8.074;2022-08-30T09:13:52;6.80;;;4.50;;
5559;SDS011;2803;47.916;8.074;2022-08-30T09:22:03;8.23;;;4.43;;
5559;SDS011;2803;47.916;8.074;2022-08-30T09:24:36;5.90;;;3.90;;
5559;SDS011;2803;47.916;8.074;2022-08-30T09:29:52;12.30;;;3.60;;
5559;SDS011;2803;47.916;8.074;2022-08-30T09:32:23;5.77;;;3.50;;
5559;SDS011;2803;47.916;8.074;2022-08-30T09:34:52;6.73;;;3.80;;
5559;SDS011;2803;47.916;8.074;2022-08-30T09:37:23;9.47;;;4.03;;
5559;SDS011;2803;47.916;8.074;2022-08-30T09:39:52;3.60;;;3.17;;
5559;SDS011;2803;47.916;8.074;2022-08-30T09:42:20;6.50;;;4.20;;
5559;SDS011;2803;47.916;8.074;2022-08-30T09:44:49;4.37;;;3.30;;
5559;SDS011;2803;47.916;8.074;2022-08-30T09:47:18;6.30;;;4.13;;
5559;SDS011;2803;47.916;8.074;2022-08-30T09:49:50;3.70;;;3.40;;
5559;SDS011;2803;47.916;8.074;2022-08-30T09:52:33;4.83;;;3.73;;
5559;SDS011;2803;47.916;8.074;2022-08-30T09:55:09;5.47;;;3.93;;
5559;SDS011;2803;47.916;8.074;2022-08-30T09:57:47;4.33;;;3.93;;
5559;SDS011;2803;47.916;8.074;2022-08-30T10:00:20;4.20;;;3.47;;
5559;SDS011;2803;47.916;8.074;2022-08-30T10:02:55;7.70;;;3.80;;
5559;SDS011;2803;47.916;8.074;2022-08-30T10:05:33;5.03;;;3.53;;
5559;SDS011;2803;47.916;8.074;2022-08-30T10:08:11;3.90;;;3.47;;
5559;SDS011;2803;47.916;8.074;2022-08-30T10:10:46;6.23;;;4.00;;
5559;SDS011;2803;47.916;8.074;2022-08-30T10:13:27;3.53;;;3.10;;
5559;SDS011;2803;47.916;8.074;2022-08-30T10:16:02;4.27;;;3.33;;
5559;SDS011;2803;47.916;8.074;2022-08-30T10:18:39;3.47;;;2.90;;
5559;SDS011;2803;47.916;8.074;2022-08-30T10:21:16;5.50;;;3.70;;
5559;SDS011;2803;47.916;8.074;2022-08-30T10:23:50;3.50;;;3.20;;
5559;SDS011;2803;47.916;8.074;2022-08-30T10:26:23;3.90;;;3.40;;
5559;SDS011;2803;47.916;8.074;2022-08-30T10:28:57;4.50;;;3.23;;
5559;SDS011;2803;47.916;8.074;2022-08-30T10:31:32;4.10;;;3.50;;
5559;SDS011;2803;47.916;8.074;2022-08-30T10:34:07;5.23;;;4.00;;
5559;SDS011;2803;47.916;8.074;2022-08-30T10:36:41;5.03;;;3.57;;
5559;SDS011;2803;47.916;8.074;2022-08-30T10:39:10;7.50;;;4.23;;
5559;SDS011;2803;47.916;8.074;2022-08-30T10:41:43;5.10;;;3.63;;
5559;SDS011;2803;47.916;8.074;2022-08-30T10:44:17;4.93;;;3.67;;
5559;SDS011;2803;47.916;8.074;2022-08-30T10:46:52;4.67;;;4.00;;
5559;SDS011;2803;47.916;8.074;2022-08-30T10:49:27;6.30;;;3.40;;
5559;SDS011;2803;47.916;8.074;2022-08-30T10:51:57;4.33;;;3.63;;
5559;SDS011;2803;47.916;8.074;2022-08-30T10:54:33;4.03;;;3.63;;
5559;SDS011;2803;47.916;8.074;2022-08-30T10:57:06;5.93;;;3.60;;
5559;SDS011;2803;47.916;8.074;2022-08-30T10:59:33;4.00;;;3.60;;
5559;SDS011;2803;47.916;8.074;2022-08-30T11:02:13;7.00;;;3.75;;
5559;SDS011;2803;47.916;8.074;2022-08-30T11:05:02;28.93;;;4.63;;
5559;SDS011;2803;47.916;8.074;2022-08-30T11:07:46;6.07;;;3.90;;
5559;SDS011;2803;47.916;8.074;2022-08-30T11:10:24;4.00;;;3.53;;
5559;SDS011;2803;47.916;8.074;2022-08-30T11:13:01;5.50;;;3.90;;
5559;SDS011;2803;47.916;8.074;2022-08-30T11:15:31;4.60;;;4.10;;
5559;SDS011;2803;47.916;8.074;2022-08-30T11:18:02;8.17;;;3.90;;
5559;SDS011;2803;47.916;8.074;2022-08-30T11:20:36;7.87;;;3.60;;
5559;SDS011;2803;47.916;8.074;2022-08-30T11:23:14;4.33;;;3.93;;
5559;SDS011;2803;47.916;8.074;2022-08-30T11:25:57;7.97;;;4.00;;
5559;SDS011;2803;47.916;8.074;2022-08-30T11:31:32;4.70;;;3.60;;
5559;SDS011;2803;47.916;8.074;2022-08-30T11:34:01;6.40;;;3.63;;
5559;SDS011;2803;47.916;8.074;2022-08-30T11:42:23;5.70;;;4.30;;
5559;SDS011;2803;47.916;8.074;2022-08-30T11:44:53;9.83;;;3.83;;
5559;SDS011;2803;47.916;8.074;2022-08-30T11:48:01;6.67;;;4.70;;
5559;SDS011;2803;47.916;8.074;2022-08-30T11:50:30;7.47;;;4.17;;
5559;SDS011;2803;47.916;8.074;2022-08-30T11:53:02;8.90;;;4.60;;
5559;SDS011;2803;47.916;8.074;2022-08-30T11:55:40;6.00;;;4.37;;
5559;SDS011;2803;47.916;8.074;2022-08-30T11:58:15;6.97;;;4.80;;
5559;SDS011;2803;47.916;8.074;2022-08-30T12:01:11;6.23;;;4.50;;
5559;SDS011;2803;47.916;8.074;2022-08-30T12:03:41;7.63;;;4.50;;
5559;SDS011;2803;47.916;8.074;2022-08-30T12:06:09;6.30;;;4.30;;
5559;SDS011;2803;47.916;8.074;2022-08-30T12:08:39;5.83;;;4.70;;
5559;SDS011;2803;47.916;8.074;2022-08-30T12:14:08;7.80;;;4.27;;
5559;SDS011;2803;47.916;8.074;2022-08-30T12:17:17;7.80;;;4.23;;
5559;SDS011;2803;47.916;8.074;2022-08-30T12:20:02;5.00;;;4.20;;
5559;SDS011;2803;47.916;8.074;2022-08-30T12:22:36;4.90;;;3.83;;
5559;SDS011;2803;47.916;8.074;2022-08-30T12:25:12;6.10;;;5.00;;
5559;SDS011;2803;47.916;8.074;2022-08-30T12:27:43;6.20;;;5.20;;
5559;SDS011;2803;47.916;8.074;2022-08-30T12:30:10;6.30;;;4.73;;
5559;SDS011;2803;47.916;8.074;2022-08-30T12:32:43;15.07;;;4.50;;
5559;SDS011;2803;47.916;8.074;2022-08-30T12:35:16;10.83;;;5.23;;
5559;SDS011;2803;47.916;8.074;2022-08-30T12:37:53;6.27;;;4.83;;
5559;SDS011;2803;47.916;8.074;2022-08-30T12:40:24;9.13;;;4.50;;
5559;SDS011;2803;47.916;8.074;2022-08-30T12:42:51;8.73;;;4.57;;
5559;SDS011;2803;47.916;8.074;2022-08-30T12:45:21;8.87;;;5.00;;
5559;SDS011;2803;47.916;8.074;2022-08-30T12:47:52;5.30;;;4.80;;
5559;SDS011;2803;47.916;8.074;2022-08-30T12:50:22;5.90;;;4.73;;
5559;SDS011;2803;47.916;8.074;2022-08-30T12:52:54;9.90;;;4.80;;
5559;SDS011;2803;47.916;8.074;2022-08-30T12:55:24;5.53;;;4.70;;
5559;SDS011;2803;47.916;8.074;2022-08-30T12:57:55;21.40;;;4.40;;
5559;SDS011;2803;47.916;8.074;2022-08-30T13:00:24;8.40;;;4.20;;
5559;SDS011;2803;47.916;8.074;2022-08-30T13:02:54;4.67;;;4.27;;
5559;SDS011;2803;47.916;8.074;2022-08-30T13:05:27;7.53;;;4.23;;
5559;SDS011;2803;47.916;8.074;2022-08-30T13:08:07;6.37;;;4.60;;
5559;SDS011;2803;47.916;8.074;2022-08-30T13:10:35;4.60;;;4.20;;
5559;SDS011;2803;47.916;8.074;2022-08-30T13:13:03;11.03;;;4.33;;
5559;SDS011;2803;47.916;8.074;2022-08-30T13:15:32;8.43;;;4.40;;
5559;SDS011;2803;47.916;8.074;2022-08-30T13:20:44;8.90;;;5.70;;
5559;SDS011;2803;47.916;8.074;2022-08-30T13:23:19;10.00;;;4.77;;
5559;SDS011;2803;47.916;8.074;2022-08-30T13:25:47;7.33;;;4.70;;
5559;SDS011;2803;47.916;8.074;2022-08-30T13:28:13;5.57;;;4.30;;
5559;SDS011;2803;47.916;8.074;2022-08-30T13:30:40;7.70;;;5.63;;
5559;SDS011;2803;47.916;8.074;2022-08-30T13:33:07;9.80;;;4.87;;
5559;SDS011;2803;47.916;8.074;2022-08-30T13:35:36;10.97;;;4.87;;
5559;SDS011;2803;47.916;8.074;2022-08-30T13:38:03;8.17;;;5.10;;
5559;SDS011;2803;47.916;8.074;2022-08-30T13:40:30;9.87;;;5.20;;
5559;SDS011;2803;47.916;8.074;2022-08-30T13:42:56;8.60;;;4.80;;
5559;SDS011;2803;47.916;8.074;2022-08-30T13:45:23;11.03;;;5.27;;
5559;SDS011;2803;47.916;8.074;2022-08-30T13:47:50;8.87;;;5.73;;
5559;SDS011;2803;47.916;8.074;2022-08-30T13:50:16;8.50;;;5.47;;
5559;SDS011;2803;47.916;8.074;2022-08-30T13:52:45;7.57;;;5.40;;
5559;SDS011;2803;47.916;8.074;2022-08-30T13:55:12;13.13;;;5.37;;
5559;SDS011;2803;47.916;8.074;2022-08-30T13:57:38;5.87;;;4.40;;
5559;SDS011;2803;47.916;8.074;2022-08-30T14:00:08;5.87;;;5.03;;
5559;SDS011;2803;47.916;8.074;2022-08-30T14:02:41;6.27;;;5.10;;
5559;SDS011;2803;47.916;8.074;2022-08-30T14:05:08;7.00;;;4.63;;
5559;SDS011;2803;47.916;8.074;2022-08-30T14:07:34;7.10;;;5.03;;
5559;SDS011;2803;47.916;8.074;2022-08-30T14:10:02;6.40;;;4.60;;
5559;SDS011;2803;47.916;8.074;2022-08-30T14:12:30;5.33;;;4.73;;
5559;SDS011;2803;47.916;8.074;2022-08-30T14:14:56;8.17;;;4.87;;
5559;SDS011;2803;47.916;8.074;2022-08-30T14:17:25;6.70;;;4.17;;
5559;SDS011;2803;47.916;8.074;2022-08-30T14:19:54;8.60;;;3.90;;
5559;SDS011;2803;47.916;8.074;2022-08-30T14:22:20;5.50;;;4.67;;
5559;SDS011;2803;47.916;8.074;2022-08-30T14:24:47;5.77;;;4.30;;
5559;SDS011;2803;47.916;8.074;2022-08-30T14:27:15;7.80;;;4.30;;
5559;SDS011;2803;47.916;8.074;2022-08-30T14:29:41;4.43;;;3.87;;
5559;SDS011;2803;47.916;8.074;2022-08-30T14:32:08;7.37;;;4.60;;
5559;SDS011;2803;47.916;8.074;2022-08-30T14:34:35;5.97;;;3.93;;
5559;SDS011;2803;47.916;8.074;2022-08-30T14:37:01;5.60;;;4.00;;
5559;SDS011;2803;47.916;8.074;2022-08-30T14:39:30;5.03;;;4.03;;
5559;SDS011;2803;47.916;8.074;2022-08-30T14:41:57;5.43;;;4.50;;
5559;SDS011;2803;47.916;8.074;2022-08-30T14:44:25;4.90;;;4.03;;
5559;SDS011;2803;47.916;8.074;2022-08-30T14:46:52;9.77;;;4.67;;
5559;SDS011;2803;47.916;8.074;2022-08-30T14:49:19;10.73;;;3.77;;
5559;SDS011;2803;47.916;8.074;2022-08-30T14:51:47;5.13;;;4.30;;
5559;SDS011;2803;47.916;8.074;2022-08-30T14:54:14;4.33;;;3.60;;
5559;SDS011;2803;47.916;8.074;2022-08-30T14:56:41;9.00;;;4.33;;
5559;SDS011;2803;47.916;8.074;2022-08-30T14:59:07;6.93;;;4.17;;
5559;SDS011;2803;47.916;8.074;2022-08-30T15:01:36;9.30;;;4.30;;
5559;SDS011;2803;47.916;8.074;2022-08-30T15:04:04;5.70;;;4.80;;
5559;SDS011;2803;47.916;8.074;2022-08-30T15:06:32;6.20;;;3.97;;
5559;SDS011;2803;47.916;8.074;2022-08-30T15:08:58;14.03;;;4.27;;
5559;SDS011;2803;47.916;8.074;2022-08-30T15:11:25;7.17;;;4.23;;
5559;SDS011;2803;47.916;8.074;2022-08-30T15:13:52;8.00;;;4.67;;
5559;SDS011;2803;47.916;8.074;2022-08-30T15:16:21;8.40;;;4.47;;
5559;SDS011;2803;47.916;8.074;2022-08-30T15:18:50;11.47;;;4.63;;
5559;SDS011;2803;47.916;8.074;2022-08-30T15:21:21;19.47;;;5.50;;
5559;SDS011;2803;47.916;8.074;2022-08-30T15:23:49;16.07;;;4.90;;
5559;SDS011;2803;47.916;8.074;2022-08-30T15:26:16;20.80;;;5.70;;
5559;SDS011;2803;47.916;8.074;2022-08-30T15:28:44;12.50;;;4.63;;
5559;SDS011;2803;47.916;8.074;2022-08-30T15:31:10;7.53;;;4.20;;
5559;SDS011;2803;47.916;8.074;2022-08-30T15:33:37;9.43;;;4.60;;
5559;SDS011;2803;47.916;8.074;2022-08-30T15:36:06;9.83;;;4.40;;
5559;SDS011;2803;47.916;8.074;2022-08-30T15:38:33;11.53;;;5.00;;
5559;SDS011;2803;47.916;8.074;2022-08-30T15:41:01;7.80;;;4.83;;
5559;SDS011;2803;47.916;8.074;2022-08-30T15:43:29;7.80;;;4.77;;
5559;SDS011;2803;47.916;8.074;2022-08-30T15:45:56;6.90;;;4.77;;